createdAt,value
2022-12-06T00:13:18.767Z,21.32497
2022-12-06T00:28:21.186Z,0.96932
2022-12-06T00:43:23.429Z,0
2022-12-06T00:58:25.747Z,0
2022-12-06T01:13:28.255Z,0
2022-12-06T01:28:30.550Z,0
2022-12-06T01:43:32.907Z,0
2022-12-06T01:58:35.216Z,1.93863
2022-12-06T02:13:37.507Z,1.93863
2022-12-06T02:28:39.776Z,1.93863
2022-12-06T02:43:42.089Z,1.93863
2022-12-06T02:58:44.383Z,1.93863
2022-12-06T03:13:46.656Z,1.93863
2022-12-06T03:28:48.901Z,1.93863
2022-12-06T03:43:51.340Z,1.93863
2022-12-06T03:58:53.687Z,1.93863
2022-12-06T04:13:56.017Z,1.93863
2022-12-06T04:28:58.294Z,1.93863
2022-12-06T04:44:00.524Z,1.93863
2022-12-06T04:59:02.854Z,0
2022-12-06T05:14:05.200Z,0
2022-12-06T05:29:07.461Z,0
2022-12-06T05:44:09.969Z,0
2022-12-06T05:59:12.338Z,0
2022-12-06T06:14:14.607Z,0
2022-12-06T06:29:17.109Z,0
2022-12-06T06:44:19.438Z,0
2022-12-06T06:59:21.805Z,0
2022-12-06T07:14:24.097Z,0
2022-12-06T07:29:26.402Z,0
2022-12-06T07:44:28.900Z,0
2022-12-06T07:59:31.207Z,0
2022-12-06T08:14:33.575Z,0
2022-12-06T08:29:35.858Z,0
2022-12-06T08:44:38.143Z,0
2022-12-06T08:59:40.443Z,0
2022-12-06T09:14:42.884Z,0
2022-12-06T09:29:45.240Z,0
2022-12-06T09:44:47.510Z,0
2022-12-06T09:59:49.834Z,0
2022-12-06T10:14:52.134Z,0
2022-12-06T10:29:54.494Z,0
2022-12-06T10:44:56.820Z,0
2022-12-06T11:00:03.078Z,0
2022-12-06T11:15:06.122Z,0
2022-12-06T11:30:08.456Z,0
2022-12-06T11:45:10.756Z,0
2022-12-06T12:00:13.007Z,0
2022-12-06T12:15:15.357Z,0
2022-12-06T12:30:17.645Z,0
2022-12-06T12:45:19.964Z,0
2022-12-06T13:00:22.309Z,0
2022-12-06T13:15:24.647Z,0
2022-12-06T13:30:27.042Z,0
2022-12-06T13:45:29.418Z,0
2022-12-06T14:00:31.717Z,0
2022-12-06T14:15:33.967Z,0
2022-12-06T14:30:36.310Z,0
2022-12-06T14:45:38.689Z,0
2022-12-06T15:00:40.967Z,0.96932
2022-12-06T15:15:43.523Z,7.75453
2022-12-06T15:30:45.931Z,37.80335
2022-12-06T15:45:48.255Z,141.52025
2022-12-06T16:00:50.539Z,330.53699
2022-12-06T16:15:52.911Z,596.12976
2022-12-06T16:30:55.310Z,740.55798
2022-12-06T16:45:57.596Z,1001.3042
2022-12-06T17:00:59.984Z,1255.26514
2022-12-06T17:16:02.485Z,1055.58594
2022-12-06T17:31:04.839Z,1866.90405
2022-12-06T17:46:07.279Z,2494.052
2022-12-06T18:01:09.744Z,3346.0813
2022-12-06T18:16:12.068Z,4293.10352
2022-12-06T18:31:14.389Z,4746.74414
2022-12-06T18:46:16.848Z,3605.85815
2022-12-06T19:01:19.514Z,5420.41895
2022-12-06T19:16:21.928Z,5259.5127
2022-12-06T19:31:24.216Z,5735.44727
2022-12-06T19:46:26.696Z,5393.27832
2022-12-06T20:01:29.071Z,6548.70361
2022-12-06T20:16:31.366Z,6110.57275
2022-12-06T20:31:33.818Z,5367.10645
2022-12-06T20:46:36.239Z,5698.61279
2022-12-06T21:01:38.685Z,5916.70947
2022-12-06T21:16:41.068Z,4801.02588
2022-12-06T21:31:43.541Z,4232.03662
2022-12-06T21:46:45.981Z,3617.48999
2022-12-06T22:01:48.399Z,3440.10498
2022-12-06T22:16:50.762Z,2477.57349
2022-12-06T22:31:53.107Z,1863.99609
2022-12-06T22:46:55.576Z,1903.73804
2022-12-06T23:01:57.992Z,1271.74353
2022-12-06T23:17:00.393Z,845.2442
2022-12-06T23:32:02.793Z,460.42545
2022-12-06T23:47:05.079Z,152.18272
